Latest Coastal Weather Observations for Point Stuart

IDD60701

Issued at 9:31 pm CST Sunday 22 October 2017 (issued every 10 minutes, with the page automatically refreshed every 10 minutes)

About coastal observations | Map of coastal stations | Coastal observations for NT | Marine services | Other Formats
Station Details ID: 014254 Name: POINT STUART Lat: -12.24 Lon: 131.88 Height: 1.0 m
Data from the previous 72 hours. | See also: Recent months at Point Stuart
Date/Time
CST
Temp
°C
Wind Pressure Rain since
9am
mm
Weather Cloud Vis
km
Sea
Height
m
Swell
Dir  Spd
kts
Gust
kts
hPa Trend Height
m
Period
s
Dir
22/09:30pm 29.5 NNW 9 13 1010.4 - 0.0 - - - - - - -
22/09:00pm 29.4 NNW 7 11 1010.1 - 0.0 - - - - - - -
22/08:30pm 29.3 NNW 7 13 1009.7 - 0.0 - - - - - - -
22/08:00pm 28.8 NNW 8 12 1009.5 - 0.0 - - - - - - -
22/07:00pm 28.8 NNW 6 9 1008.8 - 0.0 - - - - - - -
22/06:30pm 29.2 NNW 6 10 1008.5 - 0.0 - - - - - - -
22/06:00pm 29.6 NNW 6 10 1007.9 - 0.0 - - - - - - -
22/05:30pm 29.9 NNW 7 10 1007.7 - 0.0 - - - - - - -
22/05:00pm 30.4 N 5 10 1007.8 - 0.0 - - - - - - -
22/04:30pm 31.4 NNE 8 12 1007.5 - 0.0 - - - - - - -
22/04:00pm 31.7 NNE 8 12 1007.3 - 0.0 - - - - - - -
22/03:30pm 32.7 NE 9 13 1007.8 - 0.0 - - - - - - -
22/03:00pm 32.6 NE 9 15 1008.3 - 0.0 - - - - - - -
22/02:30pm 32.5 NNE 11 17 1008.5 - 0.0 - - - - - - -
22/02:00pm 32.7 N 8 14 1009.1 - 0.0 - - - - - - -
22/01:30pm 32.0 N 8 14 1009.3 - 0.0 - - - - - - -
22/01:00pm 32.3 NNE 7 11 1009.8 - 0.0 - - - - - - -
22/12:30pm 32.7 ENE 7 12 1010.2 - 0.0 - - - - - - -
22/12:00pm 31.5 NE 7 11 1010.9 - 0.0 - - - - - - -
22/11:30am 32.2 NE 6 13 1011.2 - 0.0 - - - - - - -
22/11:00am 30.6 NNE 6 10 1011.6 - 0.0 - - - - - - -
22/10:30am 30.0 NNE 7 11 1012.1 - 0.0 - - - - - - -
22/10:00am 29.4 N 6 9 1012.7 - 0.0 - - - - - - -
22/09:30am 30.1 NE 4 7 1012.5 - 0.0 - - - - - - -
22/09:00am 28.8 NNE 4 6 1012.5 - 6.8 - - - - - - -
22/08:30am 27.4 N 3 6 1012.3 - 6.8 - - - - - - -
22/08:00am 26.1 N 4 6 1012.2 - 6.6 - - - - - - -
22/07:30am 25.8 ENE 6 7 1012.0 - 6.6 - - - - - - -
22/07:00am 23.7 S 9 18 1011.6 - 4.8 - - - - - - -
22/06:30am 27.1 ESE 9 15 1011.1 - 0.0 - - - - - - -
22/06:00am 26.3 E 7 10 1010.8 - 0.0 - - - - - - -
22/05:30am 26.4 E 4 6 1010.4 - 0.0 - - - - - - -
22/05:00am 26.5 ESE 8 10 1010.1 - 0.0 - - - - - - -
22/04:30am 25.7 E 4 5 1009.9 - 0.0 - - - - - - -
22/04:00am 25.7 E 3 4 1009.6 - 0.0 - - - - - - -
22/03:30am 26.1 SE 6 6 1009.5 - 0.0 - - - - - - -
22/03:00am 25.5 SSE 4 5 1009.6 - 0.0 - - - - - - -
22/02:30am 25.5 CALM 0 0 1009.5 - 0.0 - - - - - - -
22/02:00am 25.9 CALM 0 0 1009.6 - 0.0 - - - - - - -
22/01:30am 25.6 CALM 0 0 1009.9 - 0.0 - - - - - - -
22/01:00am 26.4 CALM 0 0 1010.0 - 0.0 - - - - - - -
22/12:30am 26.8 CALM 0 0 1010.3 - 0.0 - - - - - - -
22/12:00am 27.4 S 3 4 1010.7 - 0.0 - - - - - - -
 
Date/Time
CST
Temp
°C
Wind Pressure Rain since
9am
mm
Weather Cloud Vis
km
Sea
Height
m
Swell
Dir  Spd
kts
Gust
kts
hPa Trend Height
m
Period
s
Dir
21/11:30pm 27.6 S 5 6 1010.7 - 0.0 - - - - - - -
21/11:00pm 28.4 SW 7 9 1010.6 - 0.0 - - - - - - -
21/10:30pm 29.0 NW 7 11 1010.7 - 0.0 - - - - - - -
21/10:00pm 28.8 NW 7 10 1010.4 - 0.0 - - - - - - -
21/09:30pm 29.1 NW 8 11 1010.4 - 0.0 - - - - - - -
21/09:00pm 28.8 NW 8 11 1009.9 - 0.0 - - - - - - -
21/08:30pm 28.8 NNW 7 9 1009.7 - 0.0 - - - - - - -
21/08:00pm 28.9 NNW 6 9 1009.4 - 0.0 - - - - - - -
21/07:30pm 28.9 NNW 7 10 1009.1 - 0.0 - - - - - - -
21/07:00pm 29.0 NNW 6 10 1009.0 - 0.0 - - - - - - -
21/06:30pm 29.6 NNW 9 13 1008.7 - 0.0 - - - - - - -
21/06:00pm 30.9 NNW 9 14 1008.5 - 0.0 - - - - - - -
21/05:30pm 32.2 NNW 8 12 1008.3 - 0.0 - - - - - - -
21/05:00pm 32.5 NNW 7 11 1008.2 - 0.0 - - - - - - -
21/04:30pm 33.3 NNW 7 11 1008.4 - 0.0 - - - - - - -
21/04:00pm 33.8 NNW 9 13 1008.6 - 0.0 - - - - - - -
21/03:30pm 33.7 NNW 10 15 1008.9 - 0.0 - - - - - - -
21/03:00pm 34.3 NNW 10 15 1009.3 - 0.0 - - - - - - -
21/02:30pm 34.1 NNW 8 12 1009.7 - 0.0 - - - - - - -
21/02:00pm 34.2 NNW 8 14 1010.1 - 0.0 - - - - - - -
21/01:30pm 33.3 N 9 15 1010.8 - 0.0 - - - - - - -
21/01:00pm 32.8 N 9 15 1011.6 - 0.0 - - - - - - -
21/12:30pm 32.3 N 9 15 1012.0 - 0.0 - - - - - - -
21/12:00pm 33.1 NNE 9 12 1012.5 - 0.0 - - - - - - -
21/11:30am 32.9 NNE 8 12 1012.9 - 0.0 - - - - - - -
21/11:00am 32.8 NE 9 12 1013.1 - 0.0 - - - - - - -
21/10:30am 32.1 ENE 8 11 1013.2 - 0.0 - - - - - - -
21/10:00am 32.0 E 5 9 1013.3 - 0.0 - - - - - - -
21/09:30am 31.3 ESE 4 8 1013.3 - 0.0 - - - - - - -
21/09:00am 30.4 SSE 5 7 1013.4 - 0.0 - - - - - - -
21/08:30am 29.8 ESE 6 8 1013.4 - 0.0 - - - - - - -
21/08:00am 28.4 SE 6 8 1012.9 - 0.0 - - - - - - -
21/07:30am 27.2 SSE 5 6 1012.6 - 0.0 - - - - - - -
21/07:00am 25.9 SSE 4 6 1012.2 - 0.0 - - - - - - -
21/06:30am 24.6 S 6 7 1011.7 - 0.0 - - - - - - -
21/06:00am 24.6 S 4 4 1011.4 - 0.0 - - - - - - -
21/05:30am 24.7 S 4 5 1011.5 - 0.0 - - - - - - -
21/05:00am 24.7 S 3 4 1011.3 - 0.0 - - - - - - -
21/04:30am 24.6 S 5 6 1011.2 - 0.0 - - - - - - -
21/04:00am 24.6 S 4 5 1010.9 - 0.0 - - - - - - -
21/03:30am 25.2 S 5 5 1010.9 - 0.0 - - - - - - -
21/03:00am 25.8 S 5 6 1010.9 - 0.0 - - - - - - -
21/02:30am 25.6 SE 2 4 1011.2 - 0.0 - - - - - - -
21/02:00am 26.3 SW 5 6 1011.5 - 0.0 - - - - - - -
21/01:30am 25.9 CALM 0 0 1011.6 - 0.0 - - - - - - -
21/01:00am 27.3 WNW 3 4 1011.6 - 0.0 - - - - - - -
21/12:30am 27.6 NNE 3 5 1011.8 - 0.0 - - - - - - -
21/12:00am 28.2 NNE 4 5 1011.9 - 0.0 - - - - - - -
 
Date/Time
CST
Temp
°C
Wind Pressure Rain since
9am
mm
Weather Cloud Vis
km
Sea
Height
m
Swell
Dir  Spd
kts
Gust
kts
hPa Trend Height
m
Period
s
Dir
20/11:30pm 28.5 NE 4 5 1012.3 - 0.0 - - - - - - -
20/11:00pm 29.1 N 3 5 1012.2 - 0.0 - - - - - - -
20/10:30pm 29.3 NNE 6 9 1012.0 - 0.0 - - - - - - -
20/10:00pm 29.9 NNE 7 10 1011.7 - 0.0 - - - - - - -
20/09:30pm 29.5 NNE 6 9 1011.5 - 0.0 - - - - - - -
20/09:00pm 28.9 NE 6 11 1011.4 - 0.0 - - - - - - -
20/08:30pm 29.1 NNE 6 8 1010.9 - 0.0 - - - - - - -
20/08:00pm 29.4 NNE 5 8 1010.7 - 0.0 - - - - - - -
20/07:30pm 29.1 NNE 8 14 1010.3 - 0.0 - - - - - - -
20/07:00pm 29.3 N 7 11 1009.9 - 0.0 - - - - - - -
20/06:30pm 29.6 N 8 14 1009.4 - 0.0 - - - - - - -
20/06:00pm 30.2 N 10 16 1008.9 - 0.0 - - - - - - -
20/05:30pm 32.1 N 8 13 1008.2 - 0.0 - - - - - - -
20/05:00pm 32.4 N 7 12 1008.0 - 0.0 - - - - - - -
20/04:30pm 32.7 N 8 13 1008.0 - 0.0 - - - - - - -
20/04:00pm 33.5 N 8 11 1008.3 - 0.0 - - - - - - -
20/03:30pm 34.0 N 8 13 1008.7 - 0.0 - - - - - - -
20/03:00pm 32.2 N 8 13 1009.2 - 0.0 - - - - - - -
20/02:30pm 33.6 N 9 14 1009.5 - 0.0 - - - - - - -
20/02:00pm 34.6 N 9 14 1009.7 - 0.0 - - - - - - -
20/01:30pm 34.8 N 8 13 1010.1 - 0.0 - - - - - - -
20/01:00pm 34.8 NNW 7 11 1010.6 - 0.0 - - - - - - -
20/12:30pm 35.3 N 7 11 1011.1 - 0.0 - - - - - - -
20/12:00pm 34.3 N 7 10 1011.5 - 0.0 - - - - - - -
20/11:30am 33.0 NE 6 11 1011.9 - 0.0 - - - - - - -
20/11:00am 34.0 N 5 8 1012.3 - 0.0 - - - - - - -
20/10:30am 32.2 NE 7 10 1012.6 - 0.0 - - - - - - -
20/10:00am 32.6 ENE 3 8 1012.7 - 0.0 - - - - - - -
20/09:30am 32.4 ENE 5 9 1012.9 - 0.0 - - - - - - -
20/09:00am 30.7 SSE 5 7 1012.8 - 0.0 - - - - - - -
20/08:30am 29.6 SSE 3 6 1012.7 - 0.0 - - - - - - -
20/08:00am 28.2 SSE 5 6 1012.4 - 0.0 - - - - - - -
20/07:30am 26.8 SSE 5 7 1011.9 - 0.0 - - - - - - -
20/07:00am 25.4 S 4 5 1011.5 - 0.0 - - - - - - -
20/06:30am 24.1 SSE 3 5 1011.2 - 0.0 - - - - - - -
20/06:00am 24.0 S 3 4 1010.8 - 0.0 - - - - - - -
20/05:30am 24.0 SSW 4 5 1010.5 - 0.0 - - - - - - -
20/05:00am 23.9 SSW 5 6 1010.0 - 0.0 - - - - - - -
20/04:30am 24.1 SW 4 5 1009.8 - 0.0 - - - - - - -
20/04:00am 24.9 N 2 3 1009.8 - 0.0 - - - - - - -
20/03:30am 25.8 NNE 4 5 1009.8 - 0.0 - - - - - - -
20/03:00am 26.6 NNE 4 6 1010.0 - 0.0 - - - - - - -
20/02:30am 27.0 NNE 4 5 1010.1 - 0.0 - - - - - - -
20/02:00am 27.3 NNE 5 7 1010.2 - 0.0 - - - - - - -
20/01:30am 27.7 NNE 4 6 1010.3 - 0.0 - - - - - - -
20/01:00am 27.7 N 4 6 1010.4 - 0.0 - - - - - - -
20/12:30am 28.2 N 4 8 1010.6 - 0.0 - - - - - - -
20/12:00am 28.5 N 5 8 1010.7 - 0.0 - - - - - - -
 
Date/Time
CST
Temp
°C
Wind Pressure Rain since
9am
mm
Weather Cloud Vis
km
Sea
Height
m
Swell
Dir  Spd
kts
Gust
kts
hPa Trend Height
m
Period
s
Dir
19/11:30pm 28.8 N 6 8 1010.9 - 0.0 - - - - - - -
19/11:00pm 29.1 N 5 9 1011.0 - 0.0 - - - - - - -
19/10:30pm 29.1 NNW 7 11 1010.7 - 0.0 - - - - - - -
19/10:00pm 29.0 NNW 6 9 1010.3 - 0.0 - - - - - - -

Other Formats:

Comma delimited format used in spreadsheet applications
http://www.bom.gov.au/fwo/IDD60701/IDD60701.94127.axf

JavaScript Object Notation format (JSON) in row-major order
http://www.bom.gov.au/fwo/IDD60701/IDD60701.94127.json